Time;durP1;ratioP1;P1;durP2;ratioP2;P2;SDS_P1;SDS_P2;PMS_P1;PMS_P2;Temp;Humidity;BMP_temperature;BMP_pressure;BME280_temperature;BME280_humidity;BME280_pressure;Samples;Min_cycle;Max_cycle;Signal;HPM_P1;HPM_P2
2021/12/07 00:02:11;;;;;;;2.63;2.42;;;22.00;45.70;;;;;;5058947;28;20300;-68
2021/12/07 00:04:38;;;;;;;2.88;2.50;;;22.10;45.80;;;;;;5092801;28;20185;-68
2021/12/07 00:07:06;;;;;;;3.15;2.47;;;22.10;45.90;;;;;;5058845;28;20189;-68
2021/12/07 00:09:31;;;;;;;2.50;2.30;;;22.00;45.70;;;;;;5061302;28;20185;-67
2021/12/07 00:12:03;;;;;;;2.95;2.22;;;22.00;45.80;;;;;;5075734;28;20204;-67
2021/12/07 00:14:35;;;;;;;2.58;2.38;;;22.00;45.90;;;;;;5075698;28;20172;-66
2021/12/07 00:17:03;;;;;;;2.83;2.40;;;22.10;46.00;;;;;;5075976;28;20173;-68
2021/12/07 00:19:29;;;;;;;2.30;2.08;;;22.00;45.90;;;;;;5092228;28;20212;-68
2021/12/07 00:21:55;;;;;;;2.08;1.88;;;22.00;45.90;;;;;;5075553;28;20698;-67
2021/12/07 00:24:21;;;;;;;2.80;2.20;;;22.00;45.90;;;;;;5075652;28;20205;-67
2021/12/07 00:26:47;;;;;;;2.92;2.30;;;22.00;45.90;;;;;;5075637;28;20263;-68
2021/12/07 00:29:14;;;;;;;2.40;2.17;;;22.00;45.90;;;;;;5074977;28;20582;-67
2021/12/07 00:31:54;;;;;;;2.25;2.05;;;22.00;45.90;;;;;;5058482;28;20204;-67
2021/12/07 00:34:43;;;;;;;2.80;2.20;;;22.00;45.80;;;;;;5075207;28;20238;-67
2021/12/07 00:37:10;;;;;;;2.60;2.40;;;22.10;45.90;;;;;;5075136;28;20177;-67
2021/12/07 00:39:36;;;;;;;2.50;2.30;;;22.00;45.80;;;;;;5058196;28;20219;-67
2021/12/07 00:42:05;;;;;;;2.67;2.47;;;22.00;45.70;;;;;;5075347;28;20193;-67
2021/12/07 00:44:31;;;;;;;2.20;2.00;;;22.00;45.70;;;;;;5057905;28;20176;-68
2021/12/07 00:46:57;;;;;;;2.45;2.10;;;22.00;45.80;;;;;;5058372;28;20189;-67
2021/12/07 00:49:23;;;;;;;2.63;2.08;;;22.00;45.80;;;;;;5058077;28;20188;-67
2021/12/07 00:51:49;;;;;;;2.15;1.95;;;22.00;45.80;;;;;;5058619;28;20196;-67
2021/12/07 00:54:16;;;;;;;2.08;1.88;;;22.00;45.90;;;;;;5058477;28;20185;-68
2021/12/07 00:56:43;;;;;;;2.33;2.10;;;22.00;45.90;;;;;;5074835;28;20177;-68
2021/12/07 00:59:09;;;;;;;2.42;1.92;;;22.00;45.80;;;;;;5092593;28;20698;-68
2021/12/07 01:01:35;;;;;;;2.22;2.13;;;22.00;45.80;;;;;;5058025;28;20208;-67
2021/12/07 01:04:01;;;;;;;2.38;2.00;;;22.00;45.80;;;;;;5074902;28;20295;-67
2021/12/07 01:06:32;;;;;;;2.20;2.00;;;22.00;45.90;;;;;;5074887;28;20275;-67
2021/12/07 01:25:34;;;;;;;2.20;2.00;;;22.00;45.80;;;;;;5091714;28;20541;-68
2021/12/07 01:28:07;;;;;;;1.95;1.80;;;22.00;45.80;;;;;;5074613;28;20173;-67
2021/12/07 01:30:43;;;;;;;2.78;1.85;;;22.00;45.80;;;;;;5074683;28;20180;-68
2021/12/07 01:35:54;;;;;;;2.80;2.10;;;22.10;45.80;;;;;;5092455;28;20177;-67
2021/12/07 02:01:52;;;;;;;2.13;1.92;;;22.00;45.80;;;;;;5221787;22;20235;-69
2021/12/07 02:04:18;;;;;;;1.92;1.77;;;22.00;45.80;;;;;;5077929;28;20230;-69
2021/12/07 02:06:45;;;;;;;1.80;1.70;;;22.00;45.80;;;;;;5078295;28;20226;-70
2021/12/07 02:09:12;;;;;;;2.45;2.00;;;22.00;45.80;;;;;;5074293;28;20188;-70
2021/12/07 02:11:46;;;;;;;2.20;2.00;;;22.00;45.80;;;;;;5079040;28;20201;-70
2021/12/07 02:14:16;;;;;;;1.98;1.88;;;22.00;45.80;;;;;;5077886;28;20187;-70
2021/12/07 02:17:08;;;;;;;1.98;1.83;;;22.10;45.90;;;;;;5077905;28;20642;-70
2021/12/07 02:19:35;;;;;;;2.45;1.70;;;22.00;45.80;;;;;;5061141;28;20220;-69
2021/12/07 02:22:00;;;;;;;2.15;1.95;;;22.00;45.80;;;;;;5078034;28;20200;-70
2021/12/07 02:24:34;;;;;;;1.65;1.55;;;22.00;45.70;;;;;;5061984;28;20169;-70
2021/12/07 02:27:01;;;;;;;2.33;2.03;;;22.00;45.80;;;;;;5077954;28;20235;-70
2021/12/07 02:29:27;;;;;;;2.00;1.90;;;22.00;45.80;;;;;;5060894;28;20547;-69
2021/12/07 02:31:54;;;;;;;2.10;1.90;;;22.00;45.60;;;;;;5060954;28;20196;-70
2021/12/07 02:34:22;;;;;;;1.75;1.58;;;22.00;45.60;;;;;;5077275;28;20191;-70
2021/12/07 02:36:50;;;;;;;1.73;1.63;;;22.00;45.80;;;;;;5060806;28;20185;-70
2021/12/07 02:39:18;;;;;;;1.60;1.50;;;22.00;45.80;;;;;;5060903;28;20209;-70
2021/12/07 02:41:44;;;;;;;1.85;1.75;;;22.00;46.40;;;;;;5080217;28;20205;-69
2021/12/07 02:44:12;;;;;;;1.90;1.80;;;22.00;45.80;;;;;;5094726;28;20206;-70
2021/12/07 02:46:39;;;;;;;1.80;1.70;;;22.00;45.80;;;;;;5114789;28;20180;-69
2021/12/07 02:49:08;;;;;;;1.92;1.73;;;22.10;45.80;;;;;;5080717;28;20211;-70
2021/12/07 02:51:34;;;;;;;1.60;1.50;;;22.00;45.80;;;;;;5097546;28;20218;-69
2021/12/07 02:54:01;;;;;;;1.60;1.50;;;22.10;45.80;;;;;;5080552;28;20275;-70
2021/12/07 02:56:27;;;;;;;1.95;1.70;;;22.10;45.80;;;;;;5097478;28;20251;-70
2021/12/07 02:59:01;;;;;;;1.70;1.50;;;22.00;45.80;;;;;;5097272;28;20219;-69
2021/12/07 03:01:32;;;;;;;1.73;1.60;;;22.00;45.80;;;;;;5097203;28;20207;-70
2021/12/07 03:06:40;;;;;;;1.70;1.60;;;22.00;45.70;;;;;;5096838;28;20271;-71
2021/12/07 03:26:08;;;;;;;1.30;1.25;;;22.10;45.90;;;;;;5086218;28;20184;-69
2021/12/07 03:28:45;;;;;;;1.60;1.50;;;22.10;46.00;;;;;;5096617;28;20176;-69
2021/12/07 03:31:17;;;;;;;1.40;1.30;;;22.00;45.80;;;;;;5096599;28;20180;-70
2021/12/07 03:33:46;;;;;;;1.40;1.30;;;22.10;45.90;;;;;;5096598;28;20172;-70
2021/12/07 03:36:13;;;;;;;1.50;1.40;;;22.00;45.80;;;;;;5096918;28;20176;-70
2021/12/07 03:38:41;;;;;;;1.35;1.20;;;22.10;45.90;;;;;;5096318;28;20212;-70
2021/12/07 03:41:09;;;;;;;1.05;0.95;;;22.00;45.80;;;;;;5096585;28;20229;-69
2021/12/07 03:43:36;;;;;;;1.25;1.15;;;22.10;45.90;;;;;;5080001;28;20184;-70
2021/12/07 03:46:03;;;;;;;1.23;1.00;;;22.00;45.90;;;;;;5096566;28;20180;-69
2021/12/07 03:48:30;;;;;;;1.30;1.20;;;22.10;45.90;;;;;;5079322;28;20237;-70
2021/12/07 03:50:55;;;;;;;1.20;1.10;;;22.10;45.90;;;;;;5079469;28;20635;-70
2021/12/07 03:53:22;;;;;;;1.20;1.10;;;22.10;46.00;;;;;;5096509;28;20262;-69
2021/12/07 03:55:48;;;;;;;1.08;0.98;;;22.00;45.90;;;;;;5096431;28;20225;-70
2021/12/07 03:58:14;;;;;;;0.90;0.88;;;22.00;45.80;;;;;;5079142;28;20705;-70
2021/12/07 04:00:45;;;;;;;0.80;0.80;;;22.10;45.90;;;;;;5096163;28;20184;-70
2021/12/07 04:03:15;;;;;;;1.33;1.23;;;22.00;45.80;;;;;;5096316;28;20273;-70
2021/12/07 04:05:48;;;;;;;1.25;1.15;;;22.00;45.90;;;;;;5096026;28;20421;-70
2021/12/07 04:08:24;;;;;;;0.95;0.93;;;22.00;45.90;;;;;;5095865;28;20563;-70
2021/12/07 04:10:53;;;;;;;0.90;0.90;;;22.10;46.00;;;;;;5095904;28;20195;-69
2021/12/07 04:13:19;;;;;;;1.23;1.10;;;22.10;46.00;;;;;;5095847;28;20244;-70
2021/12/07 04:15:45;;;;;;;1.20;1.10;;;22.10;46.00;;;;;;5113807;28;20203;-69
2021/12/07 04:18:12;;;;;;;1.20;1.10;;;22.10;46.60;;;;;;5094796;28;20218;-69
2021/12/07 04:20:38;;;;;;;0.93;0.75;;;22.00;45.90;;;;;;5095871;28;20184;-70
2021/12/07 04:23:06;;;;;;;1.10;1.00;;;22.10;46.00;;;;;;5095993;28;20211;-69
2021/12/07 04:25:33;;;;;;;0.80;0.77;;;22.10;46.00;;;;;;5095853;28;20179;-69
2021/12/07 04:28:00;;;;;;;1.10;0.95;;;22.10;45.90;;;;;;5113449;28;20183;-69
2021/12/07 04:30:35;;;;;;;0.80;0.80;;;22.10;45.90;;;;;;5095983;28;20267;-69
2021/12/07 04:33:03;;;;;;;0.80;0.80;;;22.10;45.90;;;;;;5095590;28;20352;-69
2021/12/07 04:35:30;;;;;;;1.17;1.08;;;22.10;45.90;;;;;;5078594;28;20241;-69
2021/12/07 04:37:57;;;;;;;1.13;1.00;;;22.00;45.80;;;;;;5095213;28;20695;-69
2021/12/07 04:40:27;;;;;;;0.90;0.90;;;22.10;45.90;;;;;;5113659;28;20213;-70
2021/12/07 04:42:54;;;;;;;0.70;0.70;;;22.10;46.00;;;;;;5095671;28;20206;-69
2021/12/07 04:48:59;;;;;;;1.10;1.00;;;22.00;45.90;;;;;;5095426;28;20188;-70
2021/12/07 04:59:04;;;;;;;0.70;0.70;;;22.00;45.90;;;;;;5113111;28;20690;-70
2021/12/07 05:01:32;;;;;;;0.90;0.90;;;22.10;46.00;;;;;;5113059;28;20548;-70
2021/12/07 05:04:01;;;;;;;0.90;0.90;;;22.10;45.90;;;;;;5092987;28;20214;-69
2021/12/07 05:06:31;;;;;;;0.80;0.80;;;22.10;45.90;;;;;;5091545;28;20177;-70
2021/12/07 05:09:04;;;;;;;0.80;0.80;;;22.10;46.00;;;;;;5074542;28;20177;-70
2021/12/07 05:14:10;;;;;;;0.93;0.70;;;22.10;46.00;;;;;;5092937;28;20181;-70
2021/12/07 05:17:12;;;;;;;0.80;0.80;;;22.10;46.00;;;;;;5091411;28;20181;-69
2021/12/07 05:38:32;;;;;;;0.80;0.80;;;22.10;45.90;;;;;;5074450;28;20227;-70
2021/12/07 05:40:58;;;;;;;1.10;0.82;;;22.00;46.50;;;;;;5091216;28;20184;-70
2021/12/07 05:43:24;;;;;;;1.13;0.82;;;22.10;45.90;;;;;;5074175;28;20203;-70
2021/12/07 05:45:50;;;;;;;0.80;0.73;;;22.00;45.80;;;;;;5074463;28;20177;-69
2021/12/07 05:48:16;;;;;;;0.90;0.80;;;22.00;45.80;;;;;;5057524;28;20184;-69
2021/12/07 05:50:43;;;;;;;0.90;0.90;;;22.00;45.80;;;;;;5074737;28;20177;-70
2021/12/07 05:53:11;;;;;;;1.00;0.90;;;22.00;45.90;;;;;;5057839;28;20200;-69
2021/12/07 05:55:38;;;;;;;0.70;0.70;;;22.00;45.90;;;;;;5057553;28;20197;-69
2021/12/07 05:58:07;;;;;;;1.38;1.00;;;22.00;45.90;;;;;;5092022;28;20240;-69
2021/12/07 06:00:36;;;;;;;1.55;0.90;;;22.00;45.90;;;;;;5090947;28;20219;-69
2021/12/07 06:03:06;;;;;;;0.85;0.70;;;22.00;46.00;;;;;;5057268;28;20212;-69
2021/12/07 06:05:34;;;;;;;0.80;0.60;;;22.00;46.00;;;;;;5074206;28;20200;-71
2021/12/07 06:08:03;;;;;;;1.30;1.02;;;22.10;46.10;;;;;;5085246;28;20223;-70
2021/12/07 06:10:29;;;;;;;0.75;0.75;;;22.00;46.00;;;;;;5091472;28;20185;-71
2021/12/07 06:12:56;;;;;;;0.70;0.70;;;22.00;45.90;;;;;;5092056;28;20303;-69
2021/12/07 06:15:23;;;;;;;0.80;0.80;;;22.00;45.90;;;;;;5057461;28;20648;-70
2021/12/07 06:17:51;;;;;;;0.93;0.90;;;22.00;45.90;;;;;;5063339;28;20695;-70
2021/12/07 06:20:18;;;;;;;1.00;0.90;;;22.10;46.00;;;;;;5074314;28;20188;-71
2021/12/07 06:22:44;;;;;;;1.02;0.68;;;22.00;45.90;;;;;;5073907;28;20189;-70
2021/12/07 06:25:10;;;;;;;1.27;1.00;;;22.00;45.90;;;;;;5077245;28;20176;-70
2021/12/07 06:27:39;;;;;;;2.03;0.90;;;22.00;45.80;;;;;;5077317;28;20187;-70
2021/12/07 06:30:06;;;;;;;1.73;0.75;;;22.00;45.90;;;;;;5094175;28;20215;-70
2021/12/07 06:32:32;;;;;;;0.80;0.80;;;22.00;45.80;;;;;;5094132;28;20233;-70
2021/12/07 06:34:58;;;;;;;0.98;0.88;;;22.00;45.80;;;;;;5077583;28;20164;-70
2021/12/07 06:37:24;;;;;;;0.90;0.90;;;22.00;45.90;;;;;;5077083;28;20203;-71
2021/12/07 06:39:50;;;;;;;0.70;0.70;;;22.00;45.90;;;;;;5112176;28;20341;-70
2021/12/07 06:42:15;;;;;;;0.60;0.60;;;22.00;45.90;;;;;;5096031;28;20214;-70
2021/12/07 06:44:41;;;;;;;0.70;0.70;;;22.00;45.90;;;;;;5081180;28;20184;-70
2021/12/07 06:47:07;;;;;;;0.80;0.80;;;22.00;45.90;;;;;;5108648;28;20180;-70
2021/12/07 06:49:33;;;;;;;0.80;0.80;;;22.00;46.00;;;;;;5088019;28;20181;-70
2021/12/07 06:51:59;;;;;;;0.70;0.70;;;22.00;45.90;;;;;;5077612;28;20216;-71
2021/12/07 06:54:25;;;;;;;1.20;0.90;;;22.00;46.00;;;;;;5091524;28;20220;-69
2021/12/07 06:56:52;;;;;;;1.88;0.90;;;22.00;46.00;;;;;;5075525;28;20263;-70
2021/12/07 06:59:19;;;;;;;1.02;0.90;;;22.00;45.90;;;;;;5071654;28;20212;-70
2021/12/07 07:01:46;;;;;;;1.30;0.95;;;22.00;46.00;;;;;;5077225;28;20209;-70
2021/12/07 07:04:13;;;;;;;0.80;0.80;;;22.10;46.10;;;;;;5092546;28;20192;-71
2021/12/07 07:06:40;;;;;;;0.60;0.50;;;22.10;46.10;;;;;;5077237;28;20177;-69
2021/12/07 07:09:07;;;;;;;0.73;0.73;;;22.10;46.10;;;;;;5060209;28;20209;-70
2021/12/07 07:11:33;;;;;;;1.08;0.80;;;22.10;46.00;;;;;;5060621;28;20265;-70
2021/12/07 07:14:00;;;;;;;0.77;0.77;;;22.00;45.90;;;;;;5077261;28;20185;-70
2021/12/07 07:16:27;;;;;;;0.60;0.60;;;22.00;45.90;;;;;;5077270;28;20242;-69
2021/12/07 07:18:53;;;;;;;1.05;0.50;;;22.10;46.00;;;;;;5076956;28;20223;-70
2021/12/07 07:21:19;;;;;;;0.95;0.60;;;22.10;46.00;;;;;;5094919;28;20166;-70
2021/12/07 07:23:44;;;;;;;0.75;0.70;;;22.10;46.00;;;;;;5093896;28;20279;-71
2021/12/07 07:26:10;;;;;;;0.95;0.70;;;22.10;45.90;;;;;;5060094;28;20177;-70
2021/12/07 07:28:36;;;;;;;0.80;0.63;;;22.10;46.60;;;;;;5076336;28;20222;-70
2021/12/07 07:31:10;;;;;;;0.80;0.80;;;22.00;45.90;;;;;;5076907;28;20177;-70
2021/12/07 07:33:37;;;;;;;0.93;0.80;;;22.10;46.00;;;;;;5085816;28;20246;-70
2021/12/07 07:36:03;;;;;;;0.60;0.60;;;22.00;45.90;;;;;;5099040;28;20236;-70
2021/12/07 07:38:29;;;;;;;0.82;0.70;;;22.10;46.10;;;;;;5103814;28;20208;-70
2021/12/07 07:40:55;;;;;;;1.02;0.60;;;22.10;46.10;;;;;;5096632;28;20181;-71
2021/12/07 07:43:23;;;;;;;1.35;0.80;;;22.10;46.00;;;;;;5079947;28;20215;-70
2021/12/07 07:45:56;;;;;;;0.80;0.80;;;22.10;46.00;;;;;;5080814;28;20195;-70
2021/12/07 07:48:23;;;;;;;0.85;0.68;;;22.10;46.00;;;;;;5079402;28;20207;-70
2021/12/07 07:50:51;;;;;;;0.77;0.77;;;22.10;46.00;;;;;;5096692;28;20271;-69
2021/12/07 07:53:19;;;;;;;1.20;0.77;;;22.10;46.00;;;;;;5078560;28;20207;-70
2021/12/07 07:55:45;;;;;;;0.88;0.80;;;22.20;46.10;;;;;;5096144;28;20196;-69
2021/12/07 07:58:12;;;;;;;1.30;0.65;;;22.10;46.00;;;;;;5087384;28;20216;-70
2021/12/07 08:00:41;;;;;;;0.60;0.60;;;22.10;46.00;;;;;;5079346;28;20270;-70
2021/12/07 08:03:07;;;;;;;0.98;0.70;;;22.10;45.90;;;;;;5080836;28;20243;-70
2021/12/07 08:05:33;;;;;;;0.93;0.65;;;22.10;46.10;;;;;;5094935;28;20186;-70
2021/12/07 08:07:59;;;;;;;0.90;0.73;;;22.10;46.00;;;;;;5075330;28;20275;-70
2021/12/07 08:10:28;;;;;;;0.65;0.63;;;22.10;46.40;;;;;;5096214;28;20230;-70
2021/12/07 08:13:00;;;;;;;0.65;0.63;;;22.10;45.90;;;;;;5106147;28;20205;-70
2021/12/07 08:15:28;;;;;;;0.70;0.70;;;22.10;45.80;;;;;;5058177;28;20609;-70
2021/12/07 08:17:55;;;;;;;0.70;0.70;;;22.10;46.00;;;;;;5058336;28;20205;-71
2021/12/07 08:20:24;;;;;;;0.90;0.60;;;22.10;46.00;;;;;;5091776;28;20209;-70
2021/12/07 08:22:50;;;;;;;0.98;0.77;;;22.10;46.00;;;;;;5078970;28;20204;-69
2021/12/07 08:25:17;;;;;;;0.65;0.60;;;22.20;46.10;;;;;;5075768;28;20641;-69
2021/12/07 08:27:43;;;;;;;1.10;0.90;;;22.10;46.00;;;;;;5085021;28;20188;-69
2021/12/07 08:30:12;;;;;;;1.35;0.70;;;22.10;45.90;;;;;;5075685;28;20192;-69
2021/12/07 08:32:44;;;;;;;0.95;0.73;;;22.10;45.90;;;;;;5092265;28;20197;-70
2021/12/07 08:35:13;;;;;;;0.80;0.70;;;22.20;46.10;;;;;;5075146;28;20180;-68
2021/12/07 08:37:39;;;;;;;1.17;0.90;;;22.10;46.00;;;;;;5073920;28;20172;-70
2021/12/07 08:40:06;;;;;;;1.42;0.88;;;22.20;46.10;;;;;;5113696;28;20180;-70
2021/12/07 08:42:32;;;;;;;1.67;0.80;;;22.20;46.10;;;;;;5078177;28;20211;-69
2021/12/07 08:44:58;;;;;;;1.25;0.85;;;22.10;46.00;;;;;;5095593;28;20188;-69
2021/12/07 08:47:24;;;;;;;0.93;0.73;;;22.20;46.00;;;;;;5113480;28;20522;-69
2021/12/07 08:49:50;;;;;;;0.85;0.80;;;22.10;46.00;;;;;;5078717;28;20627;-69
2021/12/07 08:52:16;;;;;;;0.77;0.77;;;22.20;46.00;;;;;;5067400;28;20216;-69
2021/12/07 08:59:54;;;;;;;0.70;0.70;;;22.20;46.10;;;;;;5095271;28;20239;-68
2021/12/07 09:02:24;;;;;;;1.10;0.70;;;22.20;46.10;;;;;;5104404;28;20209;-68
2021/12/07 09:04:53;;;;;;;1.02;0.80;;;22.10;46.00;;;;;;5057773;28;20185;-70
2021/12/07 09:07:21;;;;;;;1.05;0.70;;;22.20;46.00;;;;;;5079599;28;20245;-69
2021/12/07 09:09:48;;;;;;;0.93;0.85;;;22.20;46.10;;;;;;5078344;28;20183;-69
2021/12/07 09:12:16;;;;;;;0.90;0.90;;;22.20;46.10;;;;;;5094837;28;20204;-71
2021/12/07 09:14:44;;;;;;;1.90;1.00;;;22.10;46.00;;;;;;5107104;28;20712;-69
2021/12/07 09:17:13;;;;;;;1.00;0.80;;;22.10;46.10;;;;;;5091639;28;20169;-70
2021/12/07 09:19:39;;;;;;;1.23;0.90;;;22.20;46.10;;;;;;5094475;28;20212;-69
2021/12/07 09:22:06;;;;;;;1.08;0.80;;;22.20;46.10;;;;;;5111828;28;20196;-69
2021/12/07 09:24:33;;;;;;;0.77;0.77;;;22.20;46.10;;;;;;5094828;28;20203;-70
2021/12/07 09:26:59;;;;;;;0.80;0.80;;;22.20;46.10;;;;;;5077852;28;20168;-70
2021/12/07 09:29:26;;;;;;;1.08;0.90;;;22.20;46.10;;;;;;5112783;28;20221;-69
2021/12/07 09:31:52;;;;;;;1.33;0.90;;;22.10;46.00;;;;;;5094490;28;20253;-69
2021/12/07 09:34:18;;;;;;;2.80;1.10;;;22.20;46.00;;;;;;5078162;28;20176;-69
2021/12/07 09:36:45;;;;;;;1.02;1.02;;;22.20;46.00;;;;;;5077742;28;20184;-67
2021/12/07 09:39:16;;;;;;;1.67;1.00;;;22.20;45.90;;;;;;5094270;28;20212;-70
2021/12/07 09:41:43;;;;;;;1.13;1.02;;;22.10;45.80;;;;;;5094430;28;20210;-69
2021/12/07 09:44:11;;;;;;;2.05;0.90;;;22.20;45.80;;;;;;5094795;28;20233;-70
2021/12/07 09:46:39;;;;;;;1.30;0.80;;;22.10;45.90;;;;;;5077644;28;20172;-69
2021/12/07 09:49:06;;;;;;;1.80;1.10;;;22.20;46.00;;;;;;5111263;28;20550;-69
2021/12/07 09:51:34;;;;;;;1.48;1.02;;;22.20;46.00;;;;;;5094289;28;20236;-69
2021/12/07 09:54:04;;;;;;;1.20;1.10;;;22.20;46.00;;;;;;5094305;28;20190;-70
2021/12/07 09:56:31;;;;;;;1.40;1.27;;;22.20;46.00;;;;;;5094350;28;20195;-69
2021/12/07 09:58:59;;;;;;;1.30;1.20;;;22.20;46.00;;;;;;5112453;28;20244;-69
2021/12/07 10:01:29;;;;;;;1.20;1.10;;;22.20;46.00;;;;;;5094546;28;20230;-69
2021/12/07 10:03:55;;;;;;;2.47;1.85;;;22.20;46.00;;;;;;5112605;28;20180;-70
2021/12/07 10:06:22;;;;;;;2.15;1.90;;;22.20;46.00;;;;;;5094369;28;20188;-68
2021/12/07 10:08:49;;;;;;;2.70;1.85;;;22.20;46.00;;;;;;5094328;28;20196;-70
2021/12/07 10:11:16;;;;;;;2.00;1.58;;;22.20;46.00;;;;;;5094233;28;20278;-70
2021/12/07 10:13:47;;;;;;;1.90;1.73;;;22.20;45.90;;;;;;5076556;28;20184;-70
2021/12/07 10:16:16;;;;;;;1.63;1.45;;;22.30;46.00;;;;;;5074267;28;20745;-70
2021/12/07 10:18:43;;;;;;;2.50;1.80;;;22.30;46.00;;;;;;5078817;28;20287;-69
2021/12/07 10:21:16;;;;;;;1.70;1.60;;;22.30;45.90;;;;;;5107865;28;20180;-69
2021/12/07 10:23:53;;;;;;;2.53;1.75;;;22.20;45.90;;;;;;5097917;28;20183;-70
2021/12/07 10:26:30;;;;;;;1.88;1.50;;;22.30;45.90;;;;;;5098177;28;20546;-70
2021/12/07 10:29:07;;;;;;;1.95;1.67;;;22.20;45.80;;;;;;5097978;28;20179;-71
2021/12/07 10:31:50;;;;;;;2.72;1.80;;;22.20;46.50;;;;;;5081026;28;20207;-70
2021/12/07 10:34:23;;;;;;;2.42;1.70;;;22.30;45.90;;;;;;5097831;28;20190;-71
2021/12/07 10:36:55;;;;;;;2.38;1.73;;;22.30;45.90;;;;;;5081181;28;20536;-70
2021/12/07 10:39:35;;;;;;;1.98;1.45;;;22.30;45.90;;;;;;5080608;28;20208;-70
2021/12/07 10:42:07;;;;;;;1.92;1.20;;;22.30;45.90;;;;;;5097855;28;20199;-70
2021/12/07 10:44:37;;;;;;;2.70;1.60;;;22.20;45.70;;;;;;5080965;28;20188;-70
2021/12/07 10:47:10;;;;;;;2.13;1.60;;;22.30;45.90;;;;;;5115164;28;20184;-70
2021/12/07 10:49:51;;;;;;;1.63;1.42;;;22.30;45.90;;;;;;5097558;28;20184;-70
2021/12/07 10:52:34;;;;;;;2.47;1.85;;;22.30;45.90;;;;;;5098016;28;20203;-70
2021/12/07 10:55:18;;;;;;;2.10;1.48;;;22.20;45.80;;;;;;5080973;28;20313;-70
2021/12/07 10:57:54;;;;;;;2.38;1.55;;;22.20;45.90;;;;;;5080772;28;20191;-70
2021/12/07 11:00:30;;;;;;;2.10;1.40;;;22.20;45.80;;;;;;5114700;28;20168;-70
2021/12/07 11:02:59;;;;;;;3.17;1.60;;;22.30;45.90;;;;;;5114336;28;20212;-69
2021/12/07 11:05:35;;;;;;;2.38;1.33;;;22.30;45.90;;;;;;5070232;28;20169;-69
2021/12/07 11:08:06;;;;;;;1.70;1.55;;;22.30;45.90;;;;;;5060511;28;20637;-69
2021/12/07 11:10:38;;;;;;;2.22;1.65;;;22.30;45.90;;;;;;5095276;28;20169;-70
2021/12/07 11:13:18;;;;;;;3.10;1.35;;;22.30;45.90;;;;;;5081791;28;20208;-70
2021/12/07 11:16:13;;;;;;;2.72;1.90;;;22.20;45.80;;;;;;5096204;28;20184;-69
2021/12/07 11:18:44;;;;;;;3.33;1.63;;;22.30;45.90;;;;;;5094169;28;20260;-70
2021/12/07 11:21:15;;;;;;;2.10;1.23;;;22.30;45.90;;;;;;5080433;28;20229;-68
2021/12/07 11:23:52;;;;;;;1.63;1.35;;;22.30;45.90;;;;;;5097044;28;20176;-70
2021/12/07 11:31:48;;;;;;;2.45;1.70;;;22.20;45.80;;;;;;5097151;28;20204;-69
2021/12/07 11:34:29;;;;;;;1.88;1.58;;;22.30;45.90;;;;;;5097023;28;20168;-69
2021/12/07 11:37:03;;;;;;;1.95;1.63;;;22.30;45.90;;;;;;5096952;28;20184;-70
2021/12/07 11:39:32;;;;;;;3.10;1.40;;;22.20;45.90;;;;;;5079797;28;20203;-70
2021/12/07 11:42:10;;;;;;;1.70;1.20;;;22.30;45.90;;;;;;5079749;28;20211;-70
2021/12/07 11:44:59;;;;;;;3.90;1.60;;;22.20;45.80;;;;;;5080197;28;20172;-70
2021/12/07 11:48:05;;;;;;;1.98;1.30;;;22.20;45.80;;;;;;5096678;28;20180;-69
2021/12/07 11:50:41;;;;;;;1.80;1.50;;;22.20;45.80;;;;;;5086055;28;20199;-69
2021/12/07 11:53:20;;;;;;;2.92;1.58;;;22.20;45.70;;;;;;5075069;28;20212;-69
2021/12/07 11:55:50;;;;;;;2.33;1.60;;;22.30;45.80;;;;;;5076394;28;20279;-69
2021/12/07 11:58:17;;;;;;;1.77;1.42;;;22.30;45.70;;;;;;5093921;28;20284;-70
2021/12/07 12:01:05;;;;;;;1.98;1.50;;;22.30;45.60;;;;;;5076075;28;20758;-70
2021/12/07 12:03:32;;;;;;;1.80;1.33;;;22.30;45.70;;;;;;5076081;28;20269;-69
2021/12/07 12:05:59;;;;;;;2.72;1.95;;;22.30;45.60;;;;;;5059548;28;20181;-69
2021/12/07 12:08:25;;;;;;;4.38;2.15;;;22.30;45.60;;;;;;5079851;28;20272;-70
2021/12/07 12:11:00;;;;;;;2.65;1.75;;;22.30;45.70;;;;;;5093671;28;20192;-69
2021/12/07 12:13:56;;;;;;;4.70;1.67;;;22.30;45.60;;;;;;5072780;28;20215;-69
2021/12/07 12:16:55;;;;;;;1.77;1.55;;;22.30;45.70;;;;;;5113260;28;20191;-69
2021/12/07 12:19:38;;;;;;;2.47;1.52;;;22.30;45.60;;;;;;5095809;28;20192;-69
2021/12/07 12:22:25;;;;;;;2.63;1.80;;;22.30;45.70;;;;;;5075531;28;20201;-70
2021/12/07 12:24:57;;;;;;;1.30;1.20;;;22.30;45.60;;;;;;5091355;28;20662;-69
2021/12/07 12:27:32;;;;;;;1.60;1.40;;;22.30;45.60;;;;;;5095770;28;20320;-69
2021/12/07 12:30:03;;;;;;;1.92;1.50;;;22.30;45.50;;;;;;5096009;28;20180;-69
2021/12/07 12:32:41;;;;;;;1.83;1.45;;;22.30;45.50;;;;;;5078874;28;20713;-69
2021/12/07 12:35:09;;;;;;;2.70;1.40;;;22.30;45.60;;;;;;5113968;28;20550;-69
2021/12/07 12:37:36;;;;;;;3.05;1.40;;;22.30;45.60;;;;;;5078741;28;20184;-69
2021/12/07 12:40:33;;;;;;;1.90;1.30;;;22.30;45.60;;;;;;5078044;28;20212;-69
2021/12/07 12:43:02;;;;;;;2.15;1.40;;;22.30;45.60;;;;;;5074718;28;20218;-69
2021/12/07 12:45:39;;;;;;;1.83;1.42;;;22.30;45.60;;;;;;5095718;28;20184;-69
2021/12/07 12:48:32;;;;;;;2.15;1.73;;;22.30;45.60;;;;;;5095138;28;20202;-69
2021/12/07 12:50:59;;;;;;;2.45;1.52;;;22.20;45.40;;;;;;5092202;28;20234;-69
2021/12/07 12:53:33;;;;;;;2.28;1.50;;;22.30;45.50;;;;;;5071586;28;20214;-69
2021/12/07 12:56:20;;;;;;;2.22;1.38;;;22.20;45.40;;;;;;5075088;28;20274;-70
2021/12/07 12:58:56;;;;;;;2.00;1.27;;;22.20;45.50;;;;;;5074638;28;20272;-70
2021/12/07 13:01:29;;;;;;;1.67;1.13;;;22.20;45.50;;;;;;5058140;28;20169;-69
2021/12/07 13:04:11;;;;;;;3.13;1.40;;;22.20;45.50;;;;;;5091727;28;20221;-70
2021/12/07 13:09:45;;;;;;;2.22;1.20;;;22.20;45.40;;;;;;5092678;28;20256;-69
2021/12/07 13:12:41;;;;;;;1.77;1.33;;;22.20;45.30;;;;;;5078026;28;20199;-69
2021/12/07 13:15:15;;;;;;;1.75;1.40;;;22.20;45.40;;;;;;5094620;28;20200;-69
2021/12/07 13:17:48;;;;;;;2.13;1.15;;;22.30;45.60;;;;;;5094760;28;20184;-70
2021/12/07 13:20:32;;;;;;;2.28;1.42;;;22.30;45.60;;;;;;5078257;28;20187;-69
2021/12/07 13:23:13;;;;;;;2.33;1.30;;;22.30;45.50;;;;;;5112952;28;20214;-70
2021/12/07 13:25:49;;;;;;;1.77;1.23;;;22.30;45.50;;;;;;5078047;28;20239;-70
2021/12/07 13:28:21;;;;;;;2.17;1.30;;;22.20;45.30;;;;;;5111861;28;20188;-70
2021/12/07 13:31:14;;;;;;;2.15;1.40;;;22.30;45.50;;;;;;5094794;28;20227;-69
2021/12/07 13:33:57;;;;;;;1.48;1.10;;;22.20;45.40;;;;;;5113057;28;20172;-69
2021/12/07 13:36:35;;;;;;;1.33;1.00;;;22.20;46.00;;;;;;5077963;28;20176;-68
2021/12/07 13:39:22;;;;;;;1.20;1.10;;;22.30;45.50;;;;;;5078010;28;20302;-68
2021/12/07 13:41:55;;;;;;;2.10;1.20;;;22.30;45.50;;;;;;5077889;28;20208;-70
2021/12/07 13:44:22;;;;;;;1.23;1.10;;;22.20;45.40;;;;;;5086174;28;20555;-69
2021/12/07 13:46:57;;;;;;;1.52;1.42;;;22.20;45.30;;;;;;5111256;28;20176;-70
2021/12/07 13:49:23;;;;;;;1.70;1.20;;;22.20;45.30;;;;;;5091603;28;20198;-69
2021/12/07 13:51:49;;;;;;;1.85;1.33;;;22.30;45.40;;;;;;5077376;28;20207;-68
2021/12/07 13:54:20;;;;;;;2.70;1.23;;;22.20;45.30;;;;;;5096678;28;20185;-68
2021/12/07 13:56:50;;;;;;;2.33;1.50;;;22.20;45.30;;;;;;5086810;28;20185;-69
2021/12/07 13:59:23;;;;;;;1.60;1.30;;;22.20;45.40;;;;;;5100441;28;20208;-69
2021/12/07 14:01:58;;;;;;;2.22;1.27;;;22.30;45.40;;;;;;5091091;28;20235;-69
2021/12/07 14:04:28;;;;;;;1.20;1.10;;;22.30;45.50;;;;;;5079665;28;20180;-71
2021/12/07 14:06:55;;;;;;;1.98;1.40;;;22.20;45.40;;;;;;5072514;28;20191;-70
2021/12/07 14:09:22;;;;;;;2.15;1.40;;;22.20;45.40;;;;;;5116693;28;20176;-69
2021/12/07 14:11:59;;;;;;;1.55;1.10;;;22.20;45.40;;;;;;5092233;28;20287;-71
2021/12/07 14:14:26;;;;;;;1.63;1.27;;;22.20;45.40;;;;;;5086236;28;20179;-71
2021/12/07 14:16:58;;;;;;;0.90;0.90;;;22.20;45.30;;;;;;5062460;28;20192;-71
2021/12/07 14:19:24;;;;;;;1.92;1.20;;;22.20;45.30;;;;;;5094948;28;20207;-71
2021/12/07 14:21:52;;;;;;;1.55;1.42;;;22.20;45.30;;;;;;5104028;28;20208;-71
2021/12/07 14:24:20;;;;;;;1.58;1.05;;;22.20;45.40;;;;;;5087958;28;20261;-71
2021/12/07 14:26:49;;;;;;;1.33;1.23;;;22.20;45.30;;;;;;5062678;28;20173;-70
2021/12/07 14:29:25;;;;;;;1.40;1.20;;;22.20;45.30;;;;;;5106508;28;20185;-70
2021/12/07 14:31:57;;;;;;;1.85;1.33;;;22.20;45.30;;;;;;5098125;28;20203;-71
2021/12/07 14:34:30;;;;;;;1.42;1.20;;;22.20;45.30;;;;;;5097625;28;20188;-71
2021/12/07 14:37:08;;;;;;;1.75;1.08;;;22.20;45.30;;;;;;5095328;28;20180;-71
2021/12/07 14:39:40;;;;;;;2.13;1.15;;;22.20;45.40;;;;;;5097378;28;20208;-71
2021/12/07 14:42:14;;;;;;;2.03;1.38;;;22.20;45.40;;;;;;5080702;28;20243;-71
2021/12/07 14:44:45;;;;;;;1.27;1.17;;;22.20;45.40;;;;;;5060893;28;20177;-71
2021/12/07 14:47:11;;;;;;;1.13;1.02;;;22.20;45.40;;;;;;5067531;28;20184;-72
2021/12/07 14:49:48;;;;;;;2.25;1.20;;;22.20;45.30;;;;;;5115728;28;20279;-71
2021/12/07 14:52:22;;;;;;;2.03;1.20;;;22.20;45.30;;;;;;5097659;28;20212;-72
2021/12/07 14:54:50;;;;;;;1.20;1.10;;;22.20;45.30;;;;;;5080769;28;20175;-71